sensor_id;sensor_type;location;lat;lon;timestamp;P1;durP1;ratioP1;P2;durP2;ratioP2
21589;SDS011;10957;50.968;6.828;2023-07-31T00:00:39;4.50;;;4.30;;
21589;SDS011;10957;50.968;6.828;2023-07-31T00:05:40;4.60;;;4.40;;
21589;SDS011;10957;50.968;6.828;2023-07-31T00:10:42;11.60;;;4.80;;
21589;SDS011;10957;50.968;6.828;2023-07-31T00:15:43;4.80;;;4.60;;
21589;SDS011;10957;50.968;6.828;2023-07-31T00:20:44;5.13;;;4.70;;
21589;SDS011;10957;50.968;6.828;2023-07-31T00:25:45;5.65;;;5.25;;
21589;SDS011;10957;50.968;6.828;2023-07-31T00:30:47;4.57;;;4.38;;
21589;SDS011;10957;50.968;6.828;2023-07-31T00:35:48;4.70;;;4.50;;
21589;SDS011;10957;50.968;6.828;2023-07-31T00:40:49;4.60;;;4.40;;
21589;SDS011;10957;50.968;6.828;2023-07-31T00:45:51;4.50;;;4.30;;
21589;SDS011;10957;50.968;6.828;2023-07-31T00:50:52;4.50;;;4.30;;
21589;SDS011;10957;50.968;6.828;2023-07-31T00:55:53;4.60;;;4.40;;
21589;SDS011;10957;50.968;6.828;2023-07-31T01:00:55;6.30;;;6.00;;
21589;SDS011;10957;50.968;6.828;2023-07-31T01:06:02;4.43;;;4.22;;
21589;SDS011;10957;50.968;6.828;2023-07-31T01:16:20;4.90;;;4.70;;
21589;SDS011;10957;50.968;6.828;2023-07-31T01:26:30;4.65;;;4.45;;
21589;SDS011;10957;50.968;6.828;2023-07-31T01:31:35;4.43;;;4.22;;
21589;SDS011;10957;50.968;6.828;2023-07-31T01:36:38;4.65;;;4.40;;
21589;SDS011;10957;50.968;6.828;2023-07-31T01:41:40;4.75;;;4.55;;
21589;SDS011;10957;50.968;6.828;2023-07-31T01:46:41;4.80;;;4.50;;
21589;SDS011;10957;50.968;6.828;2023-07-31T01:51:43;5.13;;;4.82;;
21589;SDS011;10957;50.968;6.828;2023-07-31T01:56:44;4.60;;;4.40;;
21589;SDS011;10957;50.968;6.828;2023-07-31T02:01:46;5.20;;;5.00;;
21589;SDS011;10957;50.968;6.828;2023-07-31T02:06:47;4.60;;;4.40;;
21589;SDS011;10957;50.968;6.828;2023-07-31T02:11:48;4.80;;;4.60;;
21589;SDS011;10957;50.968;6.828;2023-07-31T02:16:49;4.53;;;4.32;;
21589;SDS011;10957;50.968;6.828;2023-07-31T02:21:51;4.80;;;4.60;;
21589;SDS011;10957;50.968;6.828;2023-07-31T02:26:52;4.70;;;4.50;;
21589;SDS011;10957;50.968;6.828;2023-07-31T02:31:54;5.75;;;5.30;;
21589;SDS011;10957;50.968;6.828;2023-07-31T02:36:55;4.70;;;4.50;;
21589;SDS011;10957;50.968;6.828;2023-07-31T02:41:56;4.70;;;4.50;;
21589;SDS011;10957;50.968;6.828;2023-07-31T02:46:58;4.72;;;4.53;;
21589;SDS011;10957;50.968;6.828;2023-07-31T02:51:59;4.70;;;4.50;;
21589;SDS011;10957;50.968;6.828;2023-07-31T02:57:01;4.82;;;4.63;;
21589;SDS011;10957;50.968;6.828;2023-07-31T03:02:02;5.80;;;5.50;;
21589;SDS011;10957;50.968;6.828;2023-07-31T03:07:04;4.93;;;4.72;;
21589;SDS011;10957;50.968;6.828;2023-07-31T03:12:06;5.93;;;5.47;;
21589;SDS011;10957;50.968;6.828;2023-07-31T03:17:08;4.88;;;4.45;;
21589;SDS011;10957;50.968;6.828;2023-07-31T03:22:09;4.35;;;4.15;;
21589;SDS011;10957;50.968;6.828;2023-07-31T03:27:11;4.72;;;4.53;;
21589;SDS011;10957;50.968;6.828;2023-07-31T03:32:12;5.15;;;4.95;;
21589;SDS011;10957;50.968;6.828;2023-07-31T03:37:13;4.40;;;4.20;;
21589;SDS011;10957;50.968;6.828;2023-07-31T03:42:15;4.40;;;4.20;;
21589;SDS011;10957;50.968;6.828;2023-07-31T03:47:16;4.20;;;4.00;;
21589;SDS011;10957;50.968;6.828;2023-07-31T03:52:17;4.53;;;4.22;;
21589;SDS011;10957;50.968;6.828;2023-07-31T03:57:18;5.32;;;5.13;;
21589;SDS011;10957;50.968;6.828;2023-07-31T04:02:20;4.60;;;4.40;;
21589;SDS011;10957;50.968;6.828;2023-07-31T04:07:21;5.32;;;5.13;;
21589;SDS011;10957;50.968;6.828;2023-07-31T04:12:22;4.38;;;4.18;;
21589;SDS011;10957;50.968;6.828;2023-07-31T04:17:23;4.85;;;4.55;;
21589;SDS011;10957;50.968;6.828;2023-07-31T04:22:25;4.20;;;4.00;;
21589;SDS011;10957;50.968;6.828;2023-07-31T04:27:26;4.40;;;4.20;;
21589;SDS011;10957;50.968;6.828;2023-07-31T04:32:27;6.85;;;5.00;;
21589;SDS011;10957;50.968;6.828;2023-07-31T04:37:30;4.20;;;4.00;;
21589;SDS011;10957;50.968;6.828;2023-07-31T04:42:31;5.05;;;4.85;;
21589;SDS011;10957;50.968;6.828;2023-07-31T04:47:35;4.32;;;4.07;;
21589;SDS011;10957;50.968;6.828;2023-07-31T04:52:37;4.10;;;3.90;;
21589;SDS011;10957;50.968;6.828;2023-07-31T04:57:38;4.32;;;4.13;;
21589;SDS011;10957;50.968;6.828;2023-07-31T05:02:39;4.25;;;4.05;;
21589;SDS011;10957;50.968;6.828;2023-07-31T05:07:41;4.38;;;4.18;;
21589;SDS011;10957;50.968;6.828;2023-07-31T05:12:42;4.20;;;4.00;;
21589;SDS011;10957;50.968;6.828;2023-07-31T05:17:43;4.60;;;3.92;;
21589;SDS011;10957;50.968;6.828;2023-07-31T05:22:44;4.57;;;4.25;;
21589;SDS011;10957;50.968;6.828;2023-07-31T05:27:46;4.28;;;3.97;;
21589;SDS011;10957;50.968;6.828;2023-07-31T05:32:47;4.40;;;4.20;;
21589;SDS011;10957;50.968;6.828;2023-07-31T05:37:48;4.53;;;3.90;;
21589;SDS011;10957;50.968;6.828;2023-07-31T05:42:50;4.65;;;4.45;;
21589;SDS011;10957;50.968;6.828;2023-07-31T05:47:51;4.25;;;4.05;;
21589;SDS011;10957;50.968;6.828;2023-07-31T05:52:52;4.15;;;3.95;;
21589;SDS011;10957;50.968;6.828;2023-07-31T05:57:54;4.40;;;4.20;;
21589;SDS011;10957;50.968;6.828;2023-07-31T06:02:55;4.18;;;3.88;;
21589;SDS011;10957;50.968;6.828;2023-07-31T06:07:57;4.20;;;4.00;;
21589;SDS011;10957;50.968;6.828;2023-07-31T06:12:58;4.50;;;4.30;;
21589;SDS011;10957;50.968;6.828;2023-07-31T06:17:59;4.68;;;4.47;;
21589;SDS011;10957;50.968;6.828;2023-07-31T06:23:02;5.15;;;4.95;;
21589;SDS011;10957;50.968;6.828;2023-07-31T06:28:04;4.70;;;4.50;;
21589;SDS011;10957;50.968;6.828;2023-07-31T06:33:05;5.10;;;4.90;;
21589;SDS011;10957;50.968;6.828;2023-07-31T06:38:07;5.45;;;5.10;;
21589;SDS011;10957;50.968;6.828;2023-07-31T06:43:08;4.88;;;4.68;;
21589;SDS011;10957;50.968;6.828;2023-07-31T06:48:09;4.70;;;4.50;;
21589;SDS011;10957;50.968;6.828;2023-07-31T06:53:11;4.60;;;4.30;;
21589;SDS011;10957;50.968;6.828;2023-07-31T06:58:12;4.10;;;3.90;;
21589;SDS011;10957;50.968;6.828;2023-07-31T07:03:13;4.80;;;4.50;;
21589;SDS011;10957;50.968;6.828;2023-07-31T07:08:15;4.40;;;4.20;;
21589;SDS011;10957;50.968;6.828;2023-07-31T07:13:21;4.20;;;4.00;;
21589;SDS011;10957;50.968;6.828;2023-07-31T07:18:22;4.50;;;4.30;;
21589;SDS011;10957;50.968;6.828;2023-07-31T07:23:24;4.80;;;4.55;;
21589;SDS011;10957;50.968;6.828;2023-07-31T07:28:25;4.20;;;4.00;;
21589;SDS011;10957;50.968;6.828;2023-07-31T07:33:26;4.30;;;4.10;;
21589;SDS011;10957;50.968;6.828;2023-07-31T07:38:28;4.50;;;4.30;;
21589;SDS011;10957;50.968;6.828;2023-07-31T07:43:29;4.00;;;3.88;;
21589;SDS011;10957;50.968;6.828;2023-07-31T07:48:31;4.15;;;3.95;;
21589;SDS011;10957;50.968;6.828;2023-07-31T07:53:33;4.13;;;3.92;;
21589;SDS011;10957;50.968;6.828;2023-07-31T07:58:34;4.20;;;4.00;;
21589;SDS011;10957;50.968;6.828;2023-07-31T08:03:35;3.83;;;3.67;;
21589;SDS011;10957;50.968;6.828;2023-07-31T08:08:37;4.65;;;4.45;;
21589;SDS011;10957;50.968;6.828;2023-07-31T08:13:38;3.63;;;3.50;;
21589;SDS011;10957;50.968;6.828;2023-07-31T08:18:40;3.83;;;3.72;;
21589;SDS011;10957;50.968;6.828;2023-07-31T08:23:43;4.30;;;4.10;;
21589;SDS011;10957;50.968;6.828;2023-07-31T08:28:44;3.53;;;3.42;;
21589;SDS011;10957;50.968;6.828;2023-07-31T08:33:46;3.80;;;3.70;;
21589;SDS011;10957;50.968;6.828;2023-07-31T08:38:47;4.10;;;3.90;;
21589;SDS011;10957;50.968;6.828;2023-07-31T08:43:50;3.75;;;3.65;;
21589;SDS011;10957;50.968;6.828;2023-07-31T08:48:52;4.20;;;4.00;;
21589;SDS011;10957;50.968;6.828;2023-07-31T08:53:55;4.60;;;4.30;;
21589;SDS011;10957;50.968;6.828;2023-07-31T08:58:59;3.60;;;3.50;;
21589;SDS011;10957;50.968;6.828;2023-07-31T09:04:02;4.05;;;3.85;;
21589;SDS011;10957;50.968;6.828;2023-07-31T09:09:09;4.30;;;4.10;;
21589;SDS011;10957;50.968;6.828;2023-07-31T09:14:10;3.67;;;3.58;;
21589;SDS011;10957;50.968;6.828;2023-07-31T09:19:13;3.50;;;3.40;;
21589;SDS011;10957;50.968;6.828;2023-07-31T09:24:26;4.00;;;3.80;;
21589;SDS011;10957;50.968;6.828;2023-07-31T09:29:31;3.50;;;3.40;;
21589;SDS011;10957;50.968;6.828;2023-07-31T09:34:39;3.42;;;3.22;;
21589;SDS011;10957;50.968;6.828;2023-07-31T09:39:47;3.25;;;3.15;;
21589;SDS011;10957;50.968;6.828;2023-07-31T09:44:49;3.13;;;3.03;;
21589;SDS011;10957;50.968;6.828;2023-07-31T09:49:50;3.83;;;3.00;;
21589;SDS011;10957;50.968;6.828;2023-07-31T09:54:51;4.35;;;4.03;;
21589;SDS011;10957;50.968;6.828;2023-07-31T09:59:53;2.83;;;2.72;;
21589;SDS011;10957;50.968;6.828;2023-07-31T10:04:57;4.90;;;3.42;;
21589;SDS011;10957;50.968;6.828;2023-07-31T10:10:01;2.90;;;2.80;;
21589;SDS011;10957;50.968;6.828;2023-07-31T10:15:04;4.38;;;4.07;;
21589;SDS011;10957;50.968;6.828;2023-07-31T10:20:07;3.35;;;3.25;;
21589;SDS011;10957;50.968;6.828;2023-07-31T10:25:09;3.08;;;2.97;;
21589;SDS011;10957;50.968;6.828;2023-07-31T10:30:14;3.00;;;2.90;;
21589;SDS011;10957;50.968;6.828;2023-07-31T10:35:18;3.20;;;3.10;;
21589;SDS011;10957;50.968;6.828;2023-07-31T10:40:24;3.28;;;3.17;;
21589;SDS011;10957;50.968;6.828;2023-07-31T10:45:33;3.40;;;3.10;;
21589;SDS011;10957;50.968;6.828;2023-07-31T10:50:38;3.22;;;3.13;;
21589;SDS011;10957;50.968;6.828;2023-07-31T10:55:47;3.20;;;3.10;;
21589;SDS011;10957;50.968;6.828;2023-07-31T11:00:56;3.33;;;3.22;;
21589;SDS011;10957;50.968;6.828;2023-07-31T11:06:00;3.30;;;3.20;;
21589;SDS011;10957;50.968;6.828;2023-07-31T11:11:05;2.80;;;2.70;;
21589;SDS011;10957;50.968;6.828;2023-07-31T11:16:08;2.60;;;2.50;;
21589;SDS011;10957;50.968;6.828;2023-07-31T11:21:15;2.88;;;2.72;;
21589;SDS011;10957;50.968;6.828;2023-07-31T11:26:18;2.80;;;2.70;;
21589;SDS011;10957;50.968;6.828;2023-07-31T11:31:20;2.67;;;2.58;;
21589;SDS011;10957;50.968;6.828;2023-07-31T11:36:21;2.78;;;2.67;;
21589;SDS011;10957;50.968;6.828;2023-07-31T11:41:23;2.80;;;2.70;;
21589;SDS011;10957;50.968;6.828;2023-07-31T11:46:24;2.80;;;2.70;;
21589;SDS011;10957;50.968;6.828;2023-07-31T11:51:25;2.70;;;2.60;;
21589;SDS011;10957;50.968;6.828;2023-07-31T11:56:30;2.45;;;2.35;;
21589;SDS011;10957;50.968;6.828;2023-07-31T12:01:31;2.70;;;2.60;;
21589;SDS011;10957;50.968;6.828;2023-07-31T12:06:37;2.88;;;2.78;;
21589;SDS011;10957;50.968;6.828;2023-07-31T12:11:45;3.00;;;2.80;;
21589;SDS011;10957;50.968;6.828;2023-07-31T12:16:47;2.83;;;2.63;;
21589;SDS011;10957;50.968;6.828;2023-07-31T12:21:56;2.40;;;2.30;;
21589;SDS011;10957;50.968;6.828;2023-07-31T12:26:58;3.20;;;2.92;;
21589;SDS011;10957;50.968;6.828;2023-07-31T12:32:00;2.65;;;2.55;;
21589;SDS011;10957;50.968;6.828;2023-07-31T12:37:01;12.80;;;3.00;;
21589;SDS011;10957;50.968;6.828;2023-07-31T12:42:12;2.35;;;2.25;;
21589;SDS011;10957;50.968;6.828;2023-07-31T12:47:13;2.50;;;2.40;;
21589;SDS011;10957;50.968;6.828;2023-07-31T12:52:16;2.97;;;2.80;;
21589;SDS011;10957;50.968;6.828;2023-07-31T12:57:18;2.80;;;2.70;;
21589;SDS011;10957;50.968;6.828;2023-07-31T13:02:21;2.97;;;2.78;;
21589;SDS011;10957;50.968;6.828;2023-07-31T13:07:22;2.70;;;2.60;;
21589;SDS011;10957;50.968;6.828;2023-07-31T13:12:23;2.70;;;2.60;;
21589;SDS011;10957;50.968;6.828;2023-07-31T13:17:25;2.70;;;2.60;;
21589;SDS011;10957;50.968;6.828;2023-07-31T13:22:26;2.63;;;2.53;;
21589;SDS011;10957;50.968;6.828;2023-07-31T13:27:28;2.92;;;2.72;;
21589;SDS011;10957;50.968;6.828;2023-07-31T13:32:29;2.58;;;2.47;;
21589;SDS011;10957;50.968;6.828;2023-07-31T13:37:31;2.70;;;2.60;;
21589;SDS011;10957;50.968;6.828;2023-07-31T13:42:34;5.20;;;2.83;;
21589;SDS011;10957;50.968;6.828;2023-07-31T13:47:35;2.60;;;2.50;;
21589;SDS011;10957;50.968;6.828;2023-07-31T13:52:37;2.92;;;2.83;;
21589;SDS011;10957;50.968;6.828;2023-07-31T13:57:39;2.88;;;2.78;;
21589;SDS011;10957;50.968;6.828;2023-07-31T14:02:40;3.10;;;2.90;;
21589;SDS011;10957;50.968;6.828;2023-07-31T14:07:41;3.03;;;2.83;;
21589;SDS011;10957;50.968;6.828;2023-07-31T14:12:43;2.70;;;2.60;;
21589;SDS011;10957;50.968;6.828;2023-07-31T14:17:47;3.00;;;2.90;;
21589;SDS011;10957;50.968;6.828;2023-07-31T14:22:49;3.03;;;2.92;;
21589;SDS011;10957;50.968;6.828;2023-07-31T14:27:53;2.90;;;2.80;;
21589;SDS011;10957;50.968;6.828;2023-07-31T14:32:54;3.10;;;2.90;;
21589;SDS011;10957;50.968;6.828;2023-07-31T14:37:56;3.10;;;2.90;;
21589;SDS011;10957;50.968;6.828;2023-07-31T14:42:57;3.85;;;3.65;;
21589;SDS011;10957;50.968;6.828;2023-07-31T14:47:58;3.40;;;3.08;;
21589;SDS011;10957;50.968;6.828;2023-07-31T14:53:00;2.90;;;2.70;;
21589;SDS011;10957;50.968;6.828;2023-07-31T14:58:01;2.95;;;2.85;;
21589;SDS011;10957;50.968;6.828;2023-07-31T15:03:03;4.15;;;3.85;;
21589;SDS011;10957;50.968;6.828;2023-07-31T15:08:05;3.00;;;2.85;;
21589;SDS011;10957;50.968;6.828;2023-07-31T15:13:06;2.78;;;2.67;;
21589;SDS011;10957;50.968;6.828;2023-07-31T15:18:07;3.55;;;3.10;;
21589;SDS011;10957;50.968;6.828;2023-07-31T15:23:09;2.78;;;2.67;;
21589;SDS011;10957;50.968;6.828;2023-07-31T15:28:10;3.42;;;3.22;;
21589;SDS011;10957;50.968;6.828;2023-07-31T15:33:11;3.00;;;2.90;;
21589;SDS011;10957;50.968;6.828;2023-07-31T15:38:13;3.00;;;2.90;;
21589;SDS011;10957;50.968;6.828;2023-07-31T15:43:18;3.58;;;3.40;;
21589;SDS011;10957;50.968;6.828;2023-07-31T15:48:21;3.20;;;3.00;;
21589;SDS011;10957;50.968;6.828;2023-07-31T15:53:22;3.53;;;3.33;;
21589;SDS011;10957;50.968;6.828;2023-07-31T15:58:23;3.53;;;3.42;;
21589;SDS011;10957;50.968;6.828;2023-07-31T16:03:25;3.85;;;3.60;;
21589;SDS011;10957;50.968;6.828;2023-07-31T16:08:30;4.03;;;3.83;;
21589;SDS011;10957;50.968;6.828;2023-07-31T16:13:31;3.83;;;3.63;;
21589;SDS011;10957;50.968;6.828;2023-07-31T16:18:32;4.50;;;4.07;;
21589;SDS011;10957;50.968;6.828;2023-07-31T16:23:33;3.70;;;3.50;;
21589;SDS011;10957;50.968;6.828;2023-07-31T16:28:46;3.60;;;3.40;;
21589;SDS011;10957;50.968;6.828;2023-07-31T16:33:51;3.25;;;3.15;;
21589;SDS011;10957;50.968;6.828;2023-07-31T16:38:52;4.07;;;3.88;;
21589;SDS011;10957;50.968;6.828;2023-07-31T16:43:54;3.40;;;3.30;;
21589;SDS011;10957;50.968;6.828;2023-07-31T16:48:56;3.50;;;3.40;;
21589;SDS011;10957;50.968;6.828;2023-07-31T16:53:58;3.60;;;3.50;;
21589;SDS011;10957;50.968;6.828;2023-07-31T16:59:04;3.30;;;3.20;;
21589;SDS011;10957;50.968;6.828;2023-07-31T17:04:18;3.63;;;3.42;;
21589;SDS011;10957;50.968;6.828;2023-07-31T17:09:19;3.25;;;3.15;;
21589;SDS011;10957;50.968;6.828;2023-07-31T17:14:21;3.40;;;3.30;;
21589;SDS011;10957;50.968;6.828;2023-07-31T17:19:28;3.90;;;3.70;;
21589;SDS011;10957;50.968;6.828;2023-07-31T17:24:40;3.58;;;3.47;;
21589;SDS011;10957;50.968;6.828;2023-07-31T17:29:42;3.60;;;3.50;;
21589;SDS011;10957;50.968;6.828;2023-07-31T17:34:43;3.58;;;3.47;;
21589;SDS011;10957;50.968;6.828;2023-07-31T17:39:47;3.78;;;3.58;;
21589;SDS011;10957;50.968;6.828;2023-07-31T17:44:48;3.55;;;3.45;;
21589;SDS011;10957;50.968;6.828;2023-07-31T17:49:50;3.70;;;3.60;;
21589;SDS011;10957;50.968;6.828;2023-07-31T17:54:51;3.65;;;3.53;;
21589;SDS011;10957;50.968;6.828;2023-07-31T17:59:54;4.22;;;4.03;;
21589;SDS011;10957;50.968;6.828;2023-07-31T18:04:56;3.80;;;3.70;;
21589;SDS011;10957;50.968;6.828;2023-07-31T18:09:57;4.35;;;4.15;;
21589;SDS011;10957;50.968;6.828;2023-07-31T18:15:00;3.60;;;3.50;;
21589;SDS011;10957;50.968;6.828;2023-07-31T18:20:02;3.70;;;3.60;;
21589;SDS011;10957;50.968;6.828;2023-07-31T18:25:04;4.18;;;3.97;;
21589;SDS011;10957;50.968;6.828;2023-07-31T18:30:07;4.40;;;4.20;;
21589;SDS011;10957;50.968;6.828;2023-07-31T18:35:09;4.40;;;4.20;;
21589;SDS011;10957;50.968;6.828;2023-07-31T18:40:11;4.05;;;3.85;;
21589;SDS011;10957;50.968;6.828;2023-07-31T18:45:12;3.85;;;3.72;;
21589;SDS011;10957;50.968;6.828;2023-07-31T18:50:13;4.10;;;3.90;;
21589;SDS011;10957;50.968;6.828;2023-07-31T18:55:15;4.28;;;4.07;;
21589;SDS011;10957;50.968;6.828;2023-07-31T19:00:16;3.90;;;3.80;;
21589;SDS011;10957;50.968;6.828;2023-07-31T19:05:17;3.90;;;3.80;;
21589;SDS011;10957;50.968;6.828;2023-07-31T19:10:21;4.20;;;4.00;;
21589;SDS011;10957;50.968;6.828;2023-07-31T19:15:22;4.53;;;4.32;;
21589;SDS011;10957;50.968;6.828;2023-07-31T19:20:24;3.88;;;3.78;;
21589;SDS011;10957;50.968;6.828;2023-07-31T19:25:25;3.90;;;3.80;;
21589;SDS011;10957;50.968;6.828;2023-07-31T19:30:26;3.80;;;3.70;;
21589;SDS011;10957;50.968;6.828;2023-07-31T19:35:27;4.10;;;3.90;;
21589;SDS011;10957;50.968;6.828;2023-07-31T19:40:29;4.10;;;3.90;;
21589;SDS011;10957;50.968;6.828;2023-07-31T19:45:30;3.80;;;3.70;;
21589;SDS011;10957;50.968;6.828;2023-07-31T19:50:32;3.80;;;3.70;;
21589;SDS011;10957;50.968;6.828;2023-07-31T19:55:33;4.32;;;4.13;;
21589;SDS011;10957;50.968;6.828;2023-07-31T20:00:35;4.60;;;4.40;;
21589;SDS011;10957;50.968;6.828;2023-07-31T20:05:36;4.10;;;3.90;;
21589;SDS011;10957;50.968;6.828;2023-07-31T20:10:37;3.97;;;3.80;;
21589;SDS011;10957;50.968;6.828;2023-07-31T20:15:38;3.97;;;3.80;;
21589;SDS011;10957;50.968;6.828;2023-07-31T20:20:40;4.40;;;4.10;;
21589;SDS011;10957;50.968;6.828;2023-07-31T20:25:42;4.10;;;3.90;;
21589;SDS011;10957;50.968;6.828;2023-07-31T20:30:43;4.20;;;4.00;;
21589;SDS011;10957;50.968;6.828;2023-07-31T20:35:45;4.30;;;4.10;;
21589;SDS011;10957;50.968;6.828;2023-07-31T20:40:49;4.30;;;4.10;;
21589;SDS011;10957;50.968;6.828;2023-07-31T20:45:52;4.30;;;4.10;;
21589;SDS011;10957;50.968;6.828;2023-07-31T20:50:54;4.10;;;3.90;;
21589;SDS011;10957;50.968;6.828;2023-07-31T20:55:59;4.20;;;4.00;;
21589;SDS011;10957;50.968;6.828;2023-07-31T21:01:00;4.30;;;4.10;;
21589;SDS011;10957;50.968;6.828;2023-07-31T21:06:02;3.90;;;3.80;;
21589;SDS011;10957;50.968;6.828;2023-07-31T21:11:03;3.90;;;3.80;;
21589;SDS011;10957;50.968;6.828;2023-07-31T21:16:04;3.80;;;3.70;;
21589;SDS011;10957;50.968;6.828;2023-07-31T21:21:06;4.03;;;3.85;;
21589;SDS011;10957;50.968;6.828;2023-07-31T21:26:07;4.10;;;3.90;;
21589;SDS011;10957;50.968;6.828;2023-07-31T21:31:13;3.88;;;3.78;;
21589;SDS011;10957;50.968;6.828;2023-07-31T21:36:15;4.20;;;4.00;;
21589;SDS011;10957;50.968;6.828;2023-07-31T21:41:16;4.40;;;4.20;;
21589;SDS011;10957;50.968;6.828;2023-07-31T21:46:18;5.47;;;5.22;;
21589;SDS011;10957;50.968;6.828;2023-07-31T21:51:19;3.90;;;3.80;;
21589;SDS011;10957;50.968;6.828;2023-07-31T21:56:20;4.30;;;4.10;;
21589;SDS011;10957;50.968;6.828;2023-07-31T22:01:22;4.40;;;4.20;;
21589;SDS011;10957;50.968;6.828;2023-07-31T22:06:23;4.13;;;3.92;;
21589;SDS011;10957;50.968;6.828;2023-07-31T22:11:24;3.97;;;3.83;;
21589;SDS011;10957;50.968;6.828;2023-07-31T22:16:26;3.70;;;3.60;;
21589;SDS011;10957;50.968;6.828;2023-07-31T22:21:27;3.40;;;3.30;;
21589;SDS011;10957;50.968;6.828;2023-07-31T22:26:28;3.90;;;3.70;;
21589;SDS011;10957;50.968;6.828;2023-07-31T22:31:30;3.30;;;3.20;;
21589;SDS011;10957;50.968;6.828;2023-07-31T22:36:31;3.50;;;3.40;;
21589;SDS011;10957;50.968;6.828;2023-07-31T22:41:32;3.33;;;3.22;;
21589;SDS011;10957;50.968;6.828;2023-07-31T22:46:33;3.50;;;3.40;;
21589;SDS011;10957;50.968;6.828;2023-07-31T22:51:35;3.50;;;3.40;;
21589;SDS011;10957;50.968;6.828;2023-07-31T22:56:36;3.60;;;3.50;;
21589;SDS011;10957;50.968;6.828;2023-07-31T23:01:38;23.77;;;3.88;;
21589;SDS011;10957;50.968;6.828;2023-07-31T23:06:39;3.50;;;3.40;;
21589;SDS011;10957;50.968;6.828;2023-07-31T23:11:40;3.20;;;3.10;;
21589;SDS011;10957;50.968;6.828;2023-07-31T23:16:50;3.53;;;3.42;;
21589;SDS011;10957;50.968;6.828;2023-07-31T23:21:52;3.80;;;3.60;;
21589;SDS011;10957;50.968;6.828;2023-07-31T23:26:53;3.22;;;3.13;;
21589;SDS011;10957;50.968;6.828;2023-07-31T23:31:55;3.10;;;3.00;;
21589;SDS011;10957;50.968;6.828;2023-07-31T23:36:56;3.00;;;2.90;;
21589;SDS011;10957;50.968;6.828;2023-07-31T23:41:57;3.20;;;3.10;;
21589;SDS011;10957;50.968;6.828;2023-07-31T23:46:59;3.40;;;3.30;;
21589;SDS011;10957;50.968;6.828;2023-07-31T23:52:00;3.20;;;3.10;;
21589;SDS011;10957;50.968;6.828;2023-07-31T23:57:02;3.15;;;3.05;;
